Time;durP1;ratioP1;P1;durP2;ratioP2;P2;SDS_P1;SDS_P2;PMS_P1;PMS_P2;Temp;Humidity;BMP_temperature;BMP_pressure;BME280_temperature;BME280_humidity;BME280_pressure;Samples;Min_cycle;Max_cycle;Signal;HPM_P1;HPM_P2
2023/06/30 00:01:31;;;;;;;;;;;15.20;99.90;;;;;;5019861;28;19932;-88
2023/06/30 00:03:57;;;;;;;;;;;15.10;99.90;;;;;;5004245;28;19929;-88
2023/06/30 00:06:23;;;;;;;;;;;15.10;99.90;;;;;;5003087;28;19972;-88
2023/06/30 00:08:49;;;;;;;;;;;15.00;99.90;;;;;;5017693;28;20016;-88
2023/06/30 00:11:15;;;;;;;;;;;15.00;99.90;;;;;;5013728;28;19933;-88
2023/06/30 00:13:40;;;;;;;;;;;15.00;99.90;;;;;;5013544;28;19928;-88
2023/06/30 00:16:06;;;;;;;;;;;15.00;99.90;;;;;;5017752;28;19951;-86
2023/06/30 00:18:31;;;;;;;;;;;15.00;99.90;;;;;;5019857;28;19929;-89
2023/06/30 00:20:57;;;;;;;;;;;15.00;99.90;;;;;;4999153;28;19996;-88
2023/06/30 00:23:27;;;;;;;;;;;15.00;99.90;;;;;;5019157;28;19992;-88
2023/06/30 00:25:52;;;;;;;;;;;14.90;99.90;;;;;;5019086;28;19931;-89
2023/06/30 00:28:18;;;;;;;;;;;14.90;99.90;;;;;;5002215;28;19964;-88
2023/06/30 00:30:44;;;;;;;;;;;14.90;99.90;;;;;;5018725;28;19960;-86
2023/06/30 00:33:09;;;;;;;;;;;14.80;99.90;;;;;;5019903;28;20449;-88
2023/06/30 00:35:35;;;;;;;;;;;14.80;99.90;;;;;;5003865;28;19992;-87
2023/06/30 00:38:01;;;;;;;;;;;14.80;99.90;;;;;;5003232;28;19926;-88
2023/06/30 00:40:26;;;;;;;;;;;14.70;99.90;;;;;;5018038;28;20000;-87
2023/06/30 00:42:52;;;;;;;;;;;14.60;99.90;;;;;;5002278;28;19932;-88
2023/06/30 00:45:17;;;;;;;;;;;14.60;99.90;;;;;;5019416;28;19971;-87
2023/06/30 00:47:43;;;;;;;;;;;14.50;99.90;;;;;;5002949;28;19929;-88
2023/06/30 00:50:09;;;;;;;;;;;14.50;99.90;;;;;;5019852;28;19925;-87
2023/06/30 00:52:35;;;;;;;;;;;14.50;99.90;;;;;;5018916;28;19933;-89
2023/06/30 00:55:00;;;;;;;;;;;14.40;99.90;;;;;;5019953;28;19925;-88
2023/06/30 00:57:26;;;;;;;;;;;14.30;99.90;;;;;;5020241;28;20011;-89
2023/06/30 00:59:51;;;;;;;;;;;14.30;99.90;;;;;;5019463;28;19974;-88
2023/06/30 01:02:22;;;;;;;;;;;14.20;99.90;;;;;;5035680;28;20443;-87
2023/06/30 01:04:54;;;;;;;;;;;14.20;99.90;;;;;;5019372;28;19973;-88
2023/06/30 01:07:22;;;;;;;;;;;14.20;99.90;;;;;;5019511;28;19925;-87
2023/06/30 01:09:51;;;;;;;;;;;14.20;99.90;;;;;;5020168;28;20029;-88
2023/06/30 01:12:17;;;;;;;;;;;14.10;99.90;;;;;;5018137;28;19932;-88
2023/06/30 01:14:44;;;;;;;;;;;14.10;99.90;;;;;;5018956;28;19929;-89
2023/06/30 01:17:09;;;;;;;;;;;14.00;99.90;;;;;;5019121;28;19925;-88
2023/06/30 01:19:37;;;;;;;;;;;14.00;99.90;;;;;;5019174;28;19933;-88
2023/06/30 01:22:04;;;;;;;;;;;14.10;99.90;;;;;;5004718;28;19925;-88
2023/06/30 01:24:34;;;;;;;;;;;14.00;99.90;;;;;;5021514;28;19929;-88
2023/06/30 01:27:00;;;;;;;;;;;14.00;99.90;;;;;;5023445;28;20428;-88
2023/06/30 01:29:25;;;;;;;;;;;14.00;99.90;;;;;;5023267;28;19925;-88
2023/06/30 01:31:51;;;;;;;;;;;13.90;99.90;;;;;;5022804;28;19925;-88
2023/06/30 01:34:17;;;;;;;;;;;13.90;99.90;;;;;;5004514;28;19934;-88
2023/06/30 01:36:42;;;;;;;;;;;13.80;99.90;;;;;;5019646;28;19933;-88
2023/06/30 01:39:08;;;;;;;;;;;13.80;99.90;;;;;;5022023;28;19925;-88
2023/06/30 01:41:33;;;;;;;;;;;13.70;99.90;;;;;;5040318;28;19936;-88
2023/06/30 01:44:00;;;;;;;;;;;13.70;99.90;;;;;;5021901;28;19964;-88
2023/06/30 01:46:25;;;;;;;;;;;13.70;99.90;;;;;;5020622;28;19932;-88
2023/06/30 01:48:51;;;;;;;;;;;13.60;99.90;;;;;;5023360;28;19925;-88
2023/06/30 01:51:17;;;;;;;;;;;13.60;99.90;;;;;;5005947;28;19932;-88
2023/06/30 01:53:43;;;;;;;;;;;13.50;99.90;;;;;;5022691;28;20380;-88
2023/06/30 01:56:09;;;;;;;;;;;13.50;99.90;;;;;;5020272;28;19940;-88
2023/06/30 01:58:35;;;;;;;;;;;13.50;99.90;;;;;;5022500;28;20386;-89
2023/06/30 02:01:01;;;;;;;;;;;13.40;99.90;;;;;;5005317;28;19925;-91
2023/06/30 02:03:26;;;;;;;;;;;13.40;99.90;;;;;;5022664;28;19925;-88
2023/06/30 02:05:52;;;;;;;;;;;13.40;99.90;;;;;;5021421;28;19936;-88
2023/06/30 02:08:17;;;;;;;;;;;13.30;99.90;;;;;;5020477;28;20016;-88
2023/06/30 02:10:43;;;;;;;;;;;13.30;99.90;;;;;;5019582;28;19925;-88
2023/06/30 02:13:08;;;;;;;;;;;13.20;99.90;;;;;;5020827;28;20327;-87
2023/06/30 02:15:34;;;;;;;;;;;13.10;99.90;;;;;;4987359;28;19933;-88
2023/06/30 02:18:00;;;;;;;;;;;13.10;99.90;;;;;;5003917;28;19936;-88
2023/06/30 02:20:25;;;;;;;;;;;13.00;99.90;;;;;;5021060;28;19968;-88
2023/06/30 02:22:51;;;;;;;;;;;13.00;99.90;;;;;;5015180;28;19973;-88
2023/06/30 02:25:16;;;;;;;;;;;12.90;99.90;;;;;;5021418;28;19983;-88
2023/06/30 02:27:45;;;;;;;;;;;12.90;99.90;;;;;;5009955;28;19949;-88
2023/06/30 02:30:11;;;;;;;;;;;12.80;99.90;;;;;;5005001;28;19925;-88
2023/06/30 02:32:37;;;;;;;;;;;12.80;99.90;;;;;;5015994;28;20304;-88
2023/06/30 02:35:06;;;;;;;;;;;12.80;99.90;;;;;;5020013;28;19932;-88
2023/06/30 02:37:31;;;;;;;;;;;12.70;99.90;;;;;;5019410;28;20369;-88
2023/06/30 02:39:57;;;;;;;;;;;12.70;99.90;;;;;;5005457;28;19936;-89
2023/06/30 02:42:23;;;;;;;;;;;12.70;99.90;;;;;;5002073;28;19933;-88
2023/06/30 02:44:50;;;;;;;;;;;12.60;99.90;;;;;;4998152;28;20396;-88
2023/06/30 02:47:16;;;;;;;;;;;12.60;99.90;;;;;;4996156;28;19956;-88
2023/06/30 02:49:41;;;;;;;;;;;12.50;99.90;;;;;;4997232;28;19984;-89
2023/06/30 02:52:08;;;;;;;;;;;12.50;99.90;;;;;;4981924;28;19926;-88
2023/06/30 02:54:33;;;;;;;;;;;12.50;99.90;;;;;;4995682;28;19926;-88
2023/06/30 02:56:59;;;;;;;;;;;12.50;99.90;;;;;;4985909;28;19992;-87
2023/06/30 02:59:25;;;;;;;;;;;12.40;99.90;;;;;;4982272;28;20393;-87
2023/06/30 03:01:50;;;;;;;;;;;12.40;99.90;;;;;;4962314;28;19949;-88
2023/06/30 03:04:16;;;;;;;;;;;12.40;99.90;;;;;;4996639;28;19929;-88
2023/06/30 03:06:41;;;;;;;;;;;12.40;99.90;;;;;;4981749;28;19933;-88
2023/06/30 03:09:08;;;;;;;;;;;12.30;99.90;;;;;;4992282;28;19926;-88
2023/06/30 03:11:33;;;;;;;;;;;12.30;99.90;;;;;;4991729;28;19937;-88
2023/06/30 03:13:59;;;;;;;;;;;12.30;99.90;;;;;;4998663;28;20348;-88
2023/06/30 03:16:25;;;;;;;;;;;12.30;99.90;;;;;;4981636;28;19996;-88
2023/06/30 03:18:50;;;;;;;;;;;12.30;99.90;;;;;;4981519;28;19926;-88
2023/06/30 03:21:16;;;;;;;;;;;12.30;99.90;;;;;;4998400;28;19926;-88
2023/06/30 03:23:42;;;;;;;;;;;12.20;99.90;;;;;;4998653;28;19945;-88
2023/06/30 03:26:07;;;;;;;;;;;12.20;99.90;;;;;;4998087;28;20412;-88
2023/06/30 03:28:33;;;;;;;;;;;12.20;99.90;;;;;;4997470;28;20029;-88
2023/06/30 03:30:59;;;;;;;;;;;12.20;99.90;;;;;;4997824;28;20288;-88
2023/06/30 03:33:24;;;;;;;;;;;12.20;99.90;;;;;;4997497;28;19930;-89
2023/06/30 03:35:50;;;;;;;;;;;12.20;99.90;;;;;;4965955;28;19925;-89
2023/06/30 03:38:16;;;;;;;;;;;12.20;99.90;;;;;;4997699;28;19957;-89
2023/06/30 03:40:41;;;;;;;;;;;12.20;99.90;;;;;;5007719;28;19930;-88
2023/06/30 03:43:07;;;;;;;;;;;12.10;99.90;;;;;;5000543;28;19926;-88
2023/06/30 03:45:33;;;;;;;;;;;12.10;99.90;;;;;;4997927;28;19952;-88
2023/06/30 03:47:58;;;;;;;;;;;12.10;99.90;;;;;;4980635;28;19926;-88
2023/06/30 03:50:24;;;;;;;;;;;12.10;99.90;;;;;;4996712;28;20305;-88
2023/06/30 03:52:49;;;;;;;;;;;12.10;99.90;;;;;;4981783;28;19941;-88
2023/06/30 03:55:15;;;;;;;;;;;12.10;99.90;;;;;;4997167;28;19926;-88
2023/06/30 03:57:40;;;;;;;;;;;12.10;99.90;;;;;;4998188;28;19930;-88
2023/06/30 04:00:08;;;;;;;;;;;12.10;99.90;;;;;;4996170;28;20381;-87
2023/06/30 04:02:34;;;;;;;;;;;12.10;99.90;;;;;;4997211;28;19933;-88
2023/06/30 04:04:59;;;;;;;;;;;12.10;99.90;;;;;;4997135;28;19926;-88
2023/06/30 04:07:25;;;;;;;;;;;12.10;99.90;;;;;;4997150;28;19981;-88
2023/06/30 04:09:50;;;;;;;;;;;12.10;99.90;;;;;;4996930;28;19925;-88
2023/06/30 04:12:16;;;;;;;;;;;12.10;99.90;;;;;;4989459;28;20012;-88
2023/06/30 04:14:41;;;;;;;;;;;12.10;99.90;;;;;;4994774;28;19932;-88
2023/06/30 04:17:07;;;;;;;;;;;12.10;99.90;;;;;;4991565;28;19957;-89
2023/06/30 04:19:33;;;;;;;;;;;12.10;99.90;;;;;;4980622;28;19926;-89
2023/06/30 04:21:58;;;;;;;;;;;12.10;99.90;;;;;;4995126;28;19926;-88
2023/06/30 04:24:24;;;;;;;;;;;12.20;99.90;;;;;;4977631;28;19992;-88
2023/06/30 04:26:49;;;;;;;;;;;12.20;99.90;;;;;;4996776;28;19932;-88
2023/06/30 04:29:15;;;;;;;;;;;12.20;99.90;;;;;;4980399;28;20399;-88
2023/06/30 04:31:40;;;;;;;;;;;12.30;99.90;;;;;;4997362;28;19926;-88
2023/06/30 04:34:06;;;;;;;;;;;12.30;99.90;;;;;;4996874;28;19925;-89
2023/06/30 04:36:31;;;;;;;;;;;12.40;99.90;;;;;;4996908;28;19933;-89
2023/06/30 04:38:57;;;;;;;;;;;12.40;99.90;;;;;;4996874;28;20141;-89
2023/06/30 04:41:23;;;;;;;;;;;12.40;99.90;;;;;;4986560;28;20381;-88
2023/06/30 04:43:48;;;;;;;;;;;12.50;99.90;;;;;;5018737;28;19932;-89
2023/06/30 04:46:15;;;;;;;;;;;12.50;99.90;;;;;;4987191;28;19940;-89
2023/06/30 04:48:40;;;;;;;;;;;12.60;99.90;;;;;;5003932;28;19960;-88
2023/06/30 04:51:06;;;;;;;;;;;12.60;99.90;;;;;;5019565;28;19925;-88
2023/06/30 04:53:32;;;;;;;;;;;12.80;99.90;;;;;;5018808;28;19925;-89
2023/06/30 04:55:57;;;;;;;;;;;13.10;99.90;;;;;;5019149;28;20000;-89
2023/06/30 04:58:23;;;;;;;;;;;13.30;99.90;;;;;;5003253;28;19936;-89
2023/06/30 05:00:49;;;;;;;;;;;13.40;99.90;;;;;;5023434;28;19968;-89
2023/06/30 05:03:15;;;;;;;;;;;13.40;99.90;;;;;;5023475;28;19929;-89
2023/06/30 05:05:40;;;;;;;;;;;13.50;99.90;;;;;;5006960;28;19991;-90
2023/06/30 05:08:06;;;;;;;;;;;13.70;99.90;;;;;;5007148;28;19988;-87
2023/06/30 05:10:31;;;;;;;;;;;13.90;99.90;;;;;;5023409;28;19933;-88
2023/06/30 05:12:57;;;;;;;;;;;14.10;99.90;;;;;;4991089;28;19925;-89
2023/06/30 05:15:22;;;;;;;;;;;14.40;99.90;;;;;;5006178;28;19925;-89
2023/06/30 05:17:48;;;;;;;;;;;14.80;99.90;;;;;;5023599;28;19936;-88
2023/06/30 05:20:13;;;;;;;;;;;15.30;99.90;;;;;;5023150;28;20461;-89
2023/06/30 05:22:39;;;;;;;;;;;15.80;99.90;;;;;;5023824;28;19925;-89
2023/06/30 05:25:05;;;;;;;;;;;16.50;99.90;;;;;;5021444;28;19951;-89
2023/06/30 05:27:31;;;;;;;;;;;17.10;99.90;;;;;;5022510;28;19925;-89
2023/06/30 05:29:56;;;;;;;;;;;17.60;99.90;;;;;;5023114;28;20303;-91
2023/06/30 05:32:22;;;;;;;;;;;18.10;99.90;;;;;;5021936;28;19924;-87
2023/06/30 05:34:48;;;;;;;;;;;18.60;99.90;;;;;;5022166;28;19980;-90
2023/06/30 05:37:14;;;;;;;;;;;19.10;99.90;;;;;;4999684;28;19936;-88
2023/06/30 05:39:40;;;;;;;;;;;19.40;99.90;;;;;;5023588;28;20320;-87
2023/06/30 05:42:05;;;;;;;;;;;19.70;99.90;;;;;;5006324;28;19992;-88
2023/06/30 05:44:31;;;;;;;;;;;20.10;99.90;;;;;;5022952;28;19925;-88
2023/06/30 05:46:56;;;;;;;;;;;20.30;99.90;;;;;;5021645;28;20015;-88
2023/06/30 05:49:22;;;;;;;;;;;20.50;99.90;;;;;;5018986;28;19925;-90
2023/06/30 05:51:48;;;;;;;;;;;20.60;99.90;;;;;;5024094;28;19956;-87
2023/06/30 05:54:13;;;;;;;;;;;20.80;99.90;;;;;;5022666;28;19925;-87
2023/06/30 05:56:39;;;;;;;;;;;21.00;99.90;;;;;;5021438;28;19948;-89
2023/06/30 05:59:09;;;;;;;;;;;21.10;99.90;;;;;;5006343;28;19929;-89
2023/06/30 06:01:38;;;;;;;;;;;21.30;99.90;;;;;;5022680;28;19929;-89
2023/06/30 06:04:10;;;;;;;;;;;21.50;99.90;;;;;;5022472;28;19925;-88
2023/06/30 06:06:36;;;;;;;;;;;21.60;99.90;;;;;;5020700;28;19971;-88
2023/06/30 06:09:02;;;;;;;;;;;21.90;99.90;;;;;;5021570;28;19968;-88
2023/06/30 06:11:28;;;;;;;;;;;22.20;99.90;;;;;;5021109;28;19932;-89
2023/06/30 06:13:53;;;;;;;;;;;22.50;99.90;;;;;;4993013;28;19932;-89
2023/06/30 06:16:20;;;;;;;;;;;22.60;99.90;;;;;;5006086;28;20265;-89
2023/06/30 06:18:47;;;;;;;;;;;22.70;99.90;;;;;;5020820;28;19929;-89
2023/06/30 06:21:13;;;;;;;;;;;22.80;99.90;;;;;;5024819;28;20371;-88
2023/06/30 06:23:38;;;;;;;;;;;22.90;99.90;;;;;;5006060;28;19925;-88
2023/06/30 06:26:04;;;;;;;;;;;23.10;99.90;;;;;;5021637;28;20027;-87
2023/06/30 06:28:29;;;;;;;;;;;23.40;99.90;;;;;;5004947;28;19936;-90
2023/06/30 06:30:55;;;;;;;;;;;23.40;99.90;;;;;;5021242;28;19925;-94
2023/06/30 06:33:20;;;;;;;;;;;23.50;99.90;;;;;;5018196;28;20525;-88
2023/06/30 06:35:48;;;;;;;;;;;23.60;99.90;;;;;;5038386;28;19932;-86
2023/06/30 06:38:15;;;;;;;;;;;23.70;99.90;;;;;;5015999;28;19932;-89
2023/06/30 06:40:40;;;;;;;;;;;23.70;99.90;;;;;;5020615;28;19925;-89
2023/06/30 06:43:06;;;;;;;;;;;23.60;99.90;;;;;;5021481;28;20296;-88
2023/06/30 06:45:32;;;;;;;;;;;23.50;99.90;;;;;;5021597;28;20304;-87
2023/06/30 06:48:16;;;;;;;;;;;23.30;99.90;;;;;;5022827;28;19929;-88
2023/06/30 06:50:42;;;;;;;;;;;23.10;99.90;;;;;;5029150;28;19951;-90
2023/06/30 06:53:07;;;;;;;;;;;22.80;99.90;;;;;;5021860;28;19929;-88
2023/06/30 06:55:33;;;;;;;;;;;22.40;99.90;;;;;;5021321;28;19953;-88
2023/06/30 06:57:58;;;;;;;;;;;22.30;99.90;;;;;;5005705;28;19929;-89
2023/06/30 07:00:24;;;;;;;;;;;22.60;99.90;;;;;;5019690;28;19940;-88
2023/06/30 07:02:50;;;;;;;;;;;22.60;99.90;;;;;;5000483;28;20307;-88
2023/06/30 07:05:16;;;;;;;;;;;22.70;99.90;;;;;;4980787;28;20438;-91
2023/06/30 07:07:41;;;;;;;;;;;22.60;99.90;;;;;;5011408;28;19952;-91
2023/06/30 07:10:07;;;;;;;;;;;22.30;99.90;;;;;;5011030;28;19929;-87
2023/06/30 07:12:33;;;;;;;;;;;22.30;99.90;;;;;;5015983;28;19929;-90
2023/06/30 07:14:58;;;;;;;;;;;22.10;99.90;;;;;;5001768;28;20013;-89
2023/06/30 07:17:24;;;;;;;;;;;22.10;99.90;;;;;;4981009;28;19983;-88
2023/06/30 07:19:49;;;;;;;;;;;22.10;99.90;;;;;;4982785;28;19932;-87
2023/06/30 07:22:15;;;;;;;;;;;22.20;99.90;;;;;;4984855;28;20009;-90
2023/06/30 07:24:40;;;;;;;;;;;22.20;99.90;;;;;;5017035;28;20498;-89
2023/06/30 07:27:06;;;;;;;;;;;22.10;99.90;;;;;;5015775;28;19931;-88
2023/06/30 07:29:31;;;;;;;;;;;22.20;99.90;;;;;;5020657;28;19929;-88
2023/06/30 07:31:57;;;;;;;;;;;22.30;99.90;;;;;;5002921;28;19987;-88
2023/06/30 07:34:23;;;;;;;;;;;22.80;99.90;;;;;;5020541;28;20361;-89
2023/06/30 07:36:52;;;;;;;;;;;23.10;99.90;;;;;;5019320;28;20053;-88
2023/06/30 07:39:18;;;;;;;;;;;23.50;99.90;;;;;;5011736;28;19929;-88
2023/06/30 07:41:43;;;;;;;;;;;23.90;99.90;;;;;;5010318;28;20019;-88
2023/06/30 07:44:11;;;;;;;;;;;24.20;98.00;;;;;;4998580;28;19929;-89
2023/06/30 07:46:37;;;;;;;;;;;24.20;92.70;;;;;;5012257;28;19929;-88
2023/06/30 07:49:03;;;;;;;;;;;24.50;94.70;;;;;;5012534;28;19941;-88
2023/06/30 07:51:29;;;;;;;;;;;24.90;98.20;;;;;;4997550;28;19967;-89
2023/06/30 07:53:55;;;;;;;;;;;24.90;95.80;;;;;;4999629;28;19941;-90
2023/06/30 07:56:20;;;;;;;;;;;25.00;93.70;;;;;;5000719;28;19933;-90
2023/06/30 07:58:46;;;;;;;;;;;24.70;91.60;;;;;;5010473;28;19952;-88
2023/06/30 08:01:12;;;;;;;;;;;24.70;93.80;;;;;;4997587;28;19932;-91
2023/06/30 08:03:37;;;;;;;;;;;24.70;92.10;;;;;;5012793;28;20400;-89
2023/06/30 08:06:03;;;;;;;;;;;24.60;91.50;;;;;;4997040;28;20407;-89
2023/06/30 08:08:30;;;;;;;;;;;24.30;93.00;;;;;;5019235;28;20307;-91
2023/06/30 08:10:55;;;;;;;;;;;24.20;93.20;;;;;;5019574;28;19933;-90
2023/06/30 08:13:22;;;;;;;;;;;24.30;92.60;;;;;;5019278;28;19936;-87
2023/06/30 08:15:47;;;;;;;;;;;24.50;92.90;;;;;;5004261;28;19975;-88
2023/06/30 08:18:13;;;;;;;;;;;24.20;92.20;;;;;;5003625;28;19936;-88
2023/06/30 08:20:38;;;;;;;;;;;23.80;91.50;;;;;;5009523;28;19985;-87
2023/06/30 08:23:04;;;;;;;;;;;23.80;93.00;;;;;;5013262;28;19933;-88
2023/06/30 08:25:30;;;;;;;;;;;23.80;93.20;;;;;;5009673;28;20007;-86
2023/06/30 08:27:55;;;;;;;;;;;23.60;93.00;;;;;;4988711;28;19939;-87
2023/06/30 08:30:22;;;;;;;;;;;23.60;94.00;;;;;;5035814;28;19929;-88
2023/06/30 08:32:47;;;;;;;;;;;23.90;90.10;;;;;;5031224;28;19935;-86
2023/06/30 08:35:13;;;;;;;;;;;24.00;90.50;;;;;;4986303;28;19925;-91
2023/06/30 08:37:39;;;;;;;;;;;24.10;90.40;;;;;;5001134;28;19925;-89
2023/06/30 08:40:05;;;;;;;;;;;24.20;92.30;;;;;;5014781;28;19929;-87
2023/06/30 08:42:31;;;;;;;;;;;23.80;91.40;;;;;;5014889;28;19930;-87
2023/06/30 08:44:57;;;;;;;;;;;23.70;90.60;;;;;;4999071;28;20395;-89
2023/06/30 08:47:25;;;;;;;;;;;23.40;90.60;;;;;;5015273;28;19957;-86
2023/06/30 08:49:51;;;;;;;;;;;23.40;94.50;;;;;;5016097;28;20008;-89
2023/06/30 08:52:17;;;;;;;;;;;23.50;92.90;;;;;;5012295;28;19925;-87
2023/06/30 08:54:43;;;;;;;;;;;23.80;92.70;;;;;;5011625;28;19936;-89
2023/06/30 08:57:09;;;;;;;;;;;23.80;90.10;;;;;;5013136;28;19925;-88
2023/06/30 08:59:35;;;;;;;;;;;24.00;90.90;;;;;;5011355;28;19992;-88
2023/06/30 09:02:02;;;;;;;;;;;24.00;91.40;;;;;;4996370;28;19964;-89
2023/06/30 09:04:28;;;;;;;;;;;23.70;89.60;;;;;;5013856;28;19976;-87
2023/06/30 09:06:54;;;;;;;;;;;23.40;92.60;;;;;;5002181;28;20019;-86
2023/06/30 09:09:24;;;;;;;;;;;23.10;92.80;;;;;;5001980;28;19929;-89
2023/06/30 09:11:51;;;;;;;;;;;23.00;94.50;;;;;;5002058;28;19980;-89
2023/06/30 09:14:17;;;;;;;;;;;22.90;91.70;;;;;;4998280;28;19929;-87
2023/06/30 09:16:43;;;;;;;;;;;22.80;90.20;;;;;;5013216;28;20256;-87
2023/06/30 09:19:09;;;;;;;;;;;22.90;92.30;;;;;;5011650;28;19933;-86
2023/06/30 09:21:35;;;;;;;;;;;23.20;93.50;;;;;;5015172;28;19926;-87
2023/06/30 09:24:00;;;;;;;;;;;23.40;91.70;;;;;;5019665;28;20008;-88
2023/06/30 09:26:28;;;;;;;;;;;23.70;93.30;;;;;;5019356;28;19965;-86
2023/06/30 09:28:54;;;;;;;;;;;23.90;93.40;;;;;;4995782;28;19925;-86
2023/06/30 09:31:27;;;;;;;;;;;24.20;92.00;;;;;;5016542;28;19926;-86
2023/06/30 09:33:52;;;;;;;;;;;24.40;90.60;;;;;;5018833;28;19929;-87
2023/06/30 09:36:18;;;;;;;;;;;24.60;91.70;;;;;;5017165;28;19980;-87
2023/06/30 09:38:44;;;;;;;;;;;24.80;90.20;;;;;;4995504;28;19925;-87
2023/06/30 09:41:18;;;;;;;;;;;25.00;84.90;;;;;;5013592;28;19925;-87
2023/06/30 09:43:44;;;;;;;;;;;25.10;88.10;;;;;;5018235;28;19929;-88
2023/06/30 09:46:11;;;;;;;;;;;24.80;83.10;;;;;;5005519;28;19984;-86
2023/06/30 09:48:40;;;;;;;;;;;24.20;84.80;;;;;;4996647;28;20333;-87
2023/06/30 09:51:07;;;;;;;;;;;23.70;84.60;;;;;;5018556;28;19953;-87
2023/06/30 09:53:37;;;;;;;;;;;23.20;86.70;;;;;;5018525;28;19925;-86
2023/06/30 09:56:03;;;;;;;;;;;22.80;85.60;;;;;;5014703;28;19982;-85
2023/06/30 09:58:29;;;;;;;;;;;22.80;85.70;;;;;;5021360;28;19925;-86
2023/06/30 10:00:56;;;;;;;;;;;23.10;92.30;;;;;;5021844;28;19936;-85
2023/06/30 10:03:22;;;;;;;;;;;23.40;83.70;;;;;;5018916;28;19933;-85
2023/06/30 10:05:48;;;;;;;;;;;23.80;86.90;;;;;;5005739;28;19989;-86
2023/06/30 10:08:13;;;;;;;;;;;24.20;84.10;;;;;;5004027;28;19933;-85
2023/06/30 10:10:39;;;;;;;;;;;24.20;82.40;;;;;;5010687;28;19979;-87
2023/06/30 10:13:05;;;;;;;;;;;24.30;84.00;;;;;;5008940;28;19933;-88
2023/06/30 10:15:31;;;;;;;;;;;24.30;87.10;;;;;;5010714;28;19928;-86
2023/06/30 10:17:57;;;;;;;;;;;24.00;87.00;;;;;;5006680;28;19925;-86
2023/06/30 10:20:24;;;;;;;;;;;23.90;87.10;;;;;;5005351;28;19961;-86
2023/06/30 10:22:50;;;;;;;;;;;23.60;84.10;;;;;;5012662;28;19929;-87
2023/06/30 10:25:17;;;;;;;;;;;23.60;85.50;;;;;;5016831;28;19929;-87
2023/06/30 10:27:44;;;;;;;;;;;23.60;85.30;;;;;;5007674;28;19971;-86
2023/06/30 10:30:11;;;;;;;;;;;24.00;88.70;;;;;;5005316;28;20037;-86
2023/06/30 10:32:37;;;;;;;;;;;24.40;85.60;;;;;;5004435;28;19948;-87
2023/06/30 10:35:03;;;;;;;;;;;24.60;80.90;;;;;;5007325;28;19988;-87
2023/06/30 10:37:29;;;;;;;;;;;24.90;82.20;;;;;;5001697;28;19941;-85
2023/06/30 10:39:54;;;;;;;;;;;25.00;76.20;;;;;;5010265;28;19933;-85
2023/06/30 10:42:20;;;;;;;;;;;25.30;81.00;;;;;;4998502;28;20532;-85
2023/06/30 10:44:47;;;;;;;;;;;25.50;77.20;;;;;;5008680;28;20288;-85
2023/06/30 10:47:14;;;;;;;;;;;25.70;76.50;;;;;;4989529;28;19926;-84
2023/06/30 10:49:40;;;;;;;;;;;25.60;69.80;;;;;;5006211;28;19937;-86
2023/06/30 10:52:09;;;;;;;;;;;25.40;75.80;;;;;;5000996;28;20336;-85
2023/06/30 10:54:39;;;;;;;;;;;25.10;71.20;;;;;;5010449;28;19929;-85
2023/06/30 10:57:13;;;;;;;;;;;25.10;67.00;;;;;;5031918;28;19957;-84
2023/06/30 10:59:40;;;;;;;;;;;25.00;73.20;;;;;;5026056;28;19936;-86
2023/06/30 11:02:09;;;;;;;;;;;24.80;72.00;;;;;;5018780;28;20024;-84
2023/06/30 11:04:38;;;;;;;;;;;24.50;72.10;;;;;;5017443;28;19929;-85
2023/06/30 11:07:05;;;;;;;;;;;24.30;74.10;;;;;;5014491;28;19932;-85
2023/06/30 11:09:46;;;;;;;;;;;24.20;76.60;;;;;;5018922;28;19925;-85
2023/06/30 11:12:14;;;;;;;;;;;24.00;74.30;;;;;;5016627;28;19933;-85
2023/06/30 11:14:49;;;;;;;;;;;24.10;75.30;;;;;;5013950;28;19926;-86
2023/06/30 11:17:15;;;;;;;;;;;24.20;74.70;;;;;;5002321;28;19933;-85
2023/06/30 11:19:54;;;;;;;;;;;24.20;74.10;;;;;;5018686;28;19929;-85
2023/06/30 11:22:23;;;;;;;;;;;24.20;74.30;;;;;;5019366;28;19929;-85
2023/06/30 11:24:48;;;;;;;;;;;24.20;75.90;;;;;;5019552;28;19963;-86
2023/06/30 11:27:14;;;;;;;;;;;24.50;73.40;;;;;;5002187;28;19933;-86
2023/06/30 11:29:40;;;;;;;;;;;24.70;72.10;;;;;;5007328;28;20253;-84
2023/06/30 11:32:06;;;;;;;;;;;25.00;74.10;;;;;;5018678;28;19925;-84
2023/06/30 11:34:32;;;;;;;;;;;25.10;70.90;;;;;;4998181;28;19925;-83
2023/06/30 11:36:58;;;;;;;;;;;25.00;72.10;;;;;;5004679;28;19925;-85
2023/06/30 11:39:23;;;;;;;;;;;25.00;73.30;;;;;;5013975;28;19968;-85
2023/06/30 11:41:49;;;;;;;;;;;24.90;71.20;;;;;;5017169;28;19925;-84
2023/06/30 11:44:14;;;;;;;;;;;25.10;71.10;;;;;;5020467;28;20307;-83
2023/06/30 11:46:40;;;;;;;;;;;25.20;67.40;;;;;;5020255;28;20010;-85
2023/06/30 11:49:05;;;;;;;;;;;25.10;69.40;;;;;;5004387;28;19932;-85
2023/06/30 11:51:31;;;;;;;;;;;25.20;71.60;;;;;;5017197;28;19948;-85
2023/06/30 11:53:57;;;;;;;;;;;25.10;68.20;;;;;;5019782;28;19925;-84
2023/06/30 11:56:23;;;;;;;;;;;25.10;69.90;;;;;;5000447;28;19979;-86
2023/06/30 11:58:49;;;;;;;;;;;25.10;69.20;;;;;;5003475;28;19926;-84
2023/06/30 12:01:16;;;;;;;;;;;25.20;71.60;;;;;;5004230;28;19988;-82
2023/06/30 12:03:41;;;;;;;;;;;25.30;71.50;;;;;;5020480;28;19933;-83
2023/06/30 12:06:07;;;;;;;;;;;25.40;68.20;;;;;;5003964;28;19925;-84
2023/06/30 12:08:37;;;;;;;;;;;25.50;71.60;;;;;;5001895;28;20020;-84
2023/06/30 12:11:03;;;;;;;;;;;25.50;69.30;;;;;;5003936;28;19979;-83
2023/06/30 12:13:29;;;;;;;;;;;25.40;71.20;;;;;;5020561;28;19925;-83
2023/06/30 12:15:57;;;;;;;;;;;25.40;70.60;;;;;;5020164;28;19936;-85
2023/06/30 12:18:36;;;;;;;;;;;25.40;70.10;;;;;;4987490;28;19925;-84
2023/06/30 12:21:02;;;;;;;;;;;25.50;69.40;;;;;;5016969;28;19925;-84
2023/06/30 12:23:29;;;;;;;;;;;25.40;70.50;;;;;;5020380;28;19939;-84
2023/06/30 12:25:56;;;;;;;;;;;25.10;71.50;;;;;;5003144;28;19947;-82
2023/06/30 12:28:22;;;;;;;;;;;24.90;72.80;;;;;;5019989;28;19929;-84
2023/06/30 12:30:47;;;;;;;;;;;24.80;72.90;;;;;;5003101;28;19988;-83
2023/06/30 12:33:18;;;;;;;;;;;24.80;73.30;;;;;;5018932;28;19929;-83
2023/06/30 12:35:44;;;;;;;;;;;24.80;72.20;;;;;;5004072;28;19925;-84
2023/06/30 12:38:12;;;;;;;;;;;25.00;72.00;;;;;;5019690;28;19964;-83
2023/06/30 12:40:38;;;;;;;;;;;25.30;69.50;;;;;;5018851;28;19932;-84
2023/06/30 12:43:04;;;;;;;;;;;25.40;69.60;;;;;;5014048;28;19940;-85
2023/06/30 12:45:29;;;;;;;;;;;25.40;68.30;;;;;;5003774;28;19925;-86
2023/06/30 12:47:55;;;;;;;;;;;25.40;67.10;;;;;;5019691;28;19940;-85
2023/06/30 12:50:21;;;;;;;;;;;25.20;68.50;;;;;;5003308;28;20269;-85
2023/06/30 12:52:46;;;;;;;;;;;25.10;67.60;;;;;;5002946;28;20343;-84
2023/06/30 12:55:12;;;;;;;;;;;25.10;66.00;;;;;;5015312;28;19929;-82
2023/06/30 12:57:40;;;;;;;;;;;25.30;67.00;;;;;;5017109;28;19925;-83
2023/06/30 13:00:06;;;;;;;;;;;25.30;70.50;;;;;;5002365;28;19929;-83
2023/06/30 13:02:33;;;;;;;;;;;25.60;70.70;;;;;;5002623;28;19925;-83
2023/06/30 13:04:58;;;;;;;;;;;25.60;68.50;;;;;;5015649;28;19929;-85
2023/06/30 13:07:24;;;;;;;;;;;25.40;67.50;;;;;;4987872;28;20528;-82
2023/06/30 13:09:50;;;;;;;;;;;25.20;67.30;;;;;;5000951;28;19976;-84
2023/06/30 13:12:17;;;;;;;;;;;25.00;69.50;;;;;;5002045;28;19936;-84
2023/06/30 13:14:42;;;;;;;;;;;25.00;69.30;;;;;;5000977;28;19929;-84
2023/06/30 13:17:08;;;;;;;;;;;25.10;69.20;;;;;;4998165;28;19925;-84
2023/06/30 13:19:33;;;;;;;;;;;25.20;70.70;;;;;;4998761;28;20498;-83
2023/06/30 13:21:59;;;;;;;;;;;25.20;67.10;;;;;;5006328;28;19925;-82
2023/06/30 13:24:25;;;;;;;;;;;25.10;66.30;;;;;;4990663;28;19935;-82
2023/06/30 13:26:50;;;;;;;;;;;25.00;69.30;;;;;;5023724;28;19925;-82
2023/06/30 13:29:17;;;;;;;;;;;25.00;70.00;;;;;;4990735;28;19925;-82
2023/06/30 13:31:43;;;;;;;;;;;25.00;69.30;;;;;;5005691;28;20399;-83
2023/06/30 13:34:09;;;;;;;;;;;25.10;67.20;;;;;;4990465;28;19925;-82
2023/06/30 13:36:35;;;;;;;;;;;25.20;67.00;;;;;;5006859;28;19929;-82
2023/06/30 13:39:01;;;;;;;;;;;25.30;68.60;;;;;;4994701;28;19948;-82
2023/06/30 13:41:27;;;;;;;;;;;25.30;68.30;;;;;;5006335;28;19925;-83
2023/06/30 13:43:52;;;;;;;;;;;25.40;67.90;;;;;;5006193;28;19939;-83
2023/06/30 13:46:18;;;;;;;;;;;25.50;69.20;;;;;;4990381;28;19935;-83
2023/06/30 13:48:44;;;;;;;;;;;25.50;65.80;;;;;;4990904;28;19925;-83
2023/06/30 13:51:09;;;;;;;;;;;25.40;65.00;;;;;;5006455;28;19932;-84
2023/06/30 13:53:36;;;;;;;;;;;25.40;67.50;;;;;;4988743;28;19929;-84
2023/06/30 13:56:02;;;;;;;;;;;25.40;67.90;;;;;;5005223;28;20358;-84
2023/06/30 13:58:28;;;;;;;;;;;25.60;66.40;;;;;;5006332;28;19993;-83
2023/06/30 14:00:54;;;;;;;;;;;25.80;67.10;;;;;;5003678;28;19925;-83
2023/06/30 14:03:19;;;;;;;;;;;26.00;68.40;;;;;;5000296;28;19929;-82
2023/06/30 14:05:48;;;;;;;;;;;25.90;65.00;;;;;;5006636;28;19929;-83
2023/06/30 14:08:14;;;;;;;;;;;25.70;64.00;;;;;;5006566;28;19925;-82
2023/06/30 14:10:40;;;;;;;;;;;25.50;65.30;;;;;;5006277;28;20422;-83